sensor_id;sensor_type;location;lat;lon;timestamp;temperature;humidity
76878;DHT22;65843;50.692;12.844;2023-04-25T00:00:29;22.00;54.60
76878;DHT22;65843;50.692;12.844;2023-04-25T00:01:30;22.10;54.60
76878;DHT22;65843;50.692;12.844;2023-04-25T00:02:31;22.10;54.60
76878;DHT22;65843;50.692;12.844;2023-04-25T00:03:33;22.00;54.60
76878;DHT22;65843;50.692;12.844;2023-04-25T00:04:34;22.10;54.60
76878;DHT22;65843;50.692;12.844;2023-04-25T00:05:35;22.10;54.60
76878;DHT22;65843;50.692;12.844;2023-04-25T00:06:37;22.10;54.70
76878;DHT22;65843;50.692;12.844;2023-04-25T00:07:38;22.10;54.70
76878;DHT22;65843;50.692;12.844;2023-04-25T00:08:39;22.10;54.60
76878;DHT22;65843;50.692;12.844;2023-04-25T00:09:41;22.10;54.60
76878;DHT22;65843;50.692;12.844;2023-04-25T00:10:42;22.10;54.70
76878;DHT22;65843;50.692;12.844;2023-04-25T00:11:43;22.10;54.60
76878;DHT22;65843;50.692;12.844;2023-04-25T00:12:44;22.10;54.70
76878;DHT22;65843;50.692;12.844;2023-04-25T00:13:46;22.10;54.70
76878;DHT22;65843;50.692;12.844;2023-04-25T00:14:47;22.10;54.70
76878;DHT22;65843;50.692;12.844;2023-04-25T00:15:50;22.10;54.70
76878;DHT22;65843;50.692;12.844;2023-04-25T00:16:51;22.10;54.70
76878;DHT22;65843;50.692;12.844;2023-04-25T00:17:52;22.10;54.70
76878;DHT22;65843;50.692;12.844;2023-04-25T00:18:53;22.10;54.60
76878;DHT22;65843;50.692;12.844;2023-04-25T00:19:54;22.10;54.60
76878;DHT22;65843;50.692;12.844;2023-04-25T00:20:56;22.10;54.60
76878;DHT22;65843;50.692;12.844;2023-04-25T00:21:57;22.10;54.60
76878;DHT22;65843;50.692;12.844;2023-04-25T00:22:59;22.10;54.70
76878;DHT22;65843;50.692;12.844;2023-04-25T00:23:59;22.10;54.70
76878;DHT22;65843;50.692;12.844;2023-04-25T00:25:01;22.10;54.70
76878;DHT22;65843;50.692;12.844;2023-04-25T00:26:02;22.10;54.70
76878;DHT22;65843;50.692;12.844;2023-04-25T00:27:03;22.10;54.70
76878;DHT22;65843;50.692;12.844;2023-04-25T00:28:04;22.10;54.70
76878;DHT22;65843;50.692;12.844;2023-04-25T00:29:05;22.10;54.70
76878;DHT22;65843;50.692;12.844;2023-04-25T00:30:06;22.10;54.70
76878;DHT22;65843;50.692;12.844;2023-04-25T00:31:07;22.10;54.70
76878;DHT22;65843;50.692;12.844;2023-04-25T00:32:08;22.10;54.70
76878;DHT22;65843;50.692;12.844;2023-04-25T00:33:09;22.10;54.70
76878;DHT22;65843;50.692;12.844;2023-04-25T00:34:10;22.10;54.70
76878;DHT22;65843;50.692;12.844;2023-04-25T00:35:11;22.10;54.70
76878;DHT22;65843;50.692;12.844;2023-04-25T00:36:12;22.10;54.70
76878;DHT22;65843;50.692;12.844;2023-04-25T00:37:13;22.10;54.70
76878;DHT22;65843;50.692;12.844;2023-04-25T00:38:14;22.10;54.70
76878;DHT22;65843;50.692;12.844;2023-04-25T00:39:15;22.10;54.70
76878;DHT22;65843;50.692;12.844;2023-04-25T00:40:16;22.10;54.70
76878;DHT22;65843;50.692;12.844;2023-04-25T00:41:17;22.10;54.70
76878;DHT22;65843;50.692;12.844;2023-04-25T00:42:19;22.10;54.70
76878;DHT22;65843;50.692;12.844;2023-04-25T00:43:20;22.10;54.70
76878;DHT22;65843;50.692;12.844;2023-04-25T00:44:21;22.10;54.70
76878;DHT22;65843;50.692;12.844;2023-04-25T00:45:22;22.10;54.70
76878;DHT22;65843;50.692;12.844;2023-04-25T00:46:27;22.10;54.70
76878;DHT22;65843;50.692;12.844;2023-04-25T00:47:28;22.10;54.70
76878;DHT22;65843;50.692;12.844;2023-04-25T00:48:29;22.10;54.80
76878;DHT22;65843;50.692;12.844;2023-04-25T00:49:30;22.10;54.80
76878;DHT22;65843;50.692;12.844;2023-04-25T00:50:32;22.10;54.90
76878;DHT22;65843;50.692;12.844;2023-04-25T00:51:34;22.10;54.80
76878;DHT22;65843;50.692;12.844;2023-04-25T00:52:35;22.10;54.90
76878;DHT22;65843;50.692;12.844;2023-04-25T00:53:36;22.10;54.80
76878;DHT22;65843;50.692;12.844;2023-04-25T00:54:37;22.10;54.90
76878;DHT22;65843;50.692;12.844;2023-04-25T00:55:38;22.00;54.80
76878;DHT22;65843;50.692;12.844;2023-04-25T00:56:39;22.10;54.80
76878;DHT22;65843;50.692;12.844;2023-04-25T00:57:40;22.10;54.90
76878;DHT22;65843;50.692;12.844;2023-04-25T00:58:42;22.00;54.90
76878;DHT22;65843;50.692;12.844;2023-04-25T00:59:44;22.10;54.90
76878;DHT22;65843;50.692;12.844;2023-04-25T01:00:46;22.00;54.90
76878;DHT22;65843;50.692;12.844;2023-04-25T01:01:48;22.10;54.90
76878;DHT22;65843;50.692;12.844;2023-04-25T01:02:48;22.10;54.90
76878;DHT22;65843;50.692;12.844;2023-04-25T01:03:50;22.10;54.80
76878;DHT22;65843;50.692;12.844;2023-04-25T01:04:51;22.00;54.90
76878;DHT22;65843;50.692;12.844;2023-04-25T01:05:52;22.10;54.80
76878;DHT22;65843;50.692;12.844;2023-04-25T01:06:53;22.10;54.90
76878;DHT22;65843;50.692;12.844;2023-04-25T01:07:55;22.00;54.90
76878;DHT22;65843;50.692;12.844;2023-04-25T01:08:56;22.10;54.90
76878;DHT22;65843;50.692;12.844;2023-04-25T01:09:57;22.00;54.90
76878;DHT22;65843;50.692;12.844;2023-04-25T01:10:58;22.00;54.90
76878;DHT22;65843;50.692;12.844;2023-04-25T01:11:59;22.00;54.90
76878;DHT22;65843;50.692;12.844;2023-04-25T01:13:01;22.00;54.90
76878;DHT22;65843;50.692;12.844;2023-04-25T01:14:02;22.00;55.00
76878;DHT22;65843;50.692;12.844;2023-04-25T01:15:03;22.00;55.00
76878;DHT22;65843;50.692;12.844;2023-04-25T01:16:04;22.00;55.00
76878;DHT22;65843;50.692;12.844;2023-04-25T01:17:05;22.00;55.00
76878;DHT22;65843;50.692;12.844;2023-04-25T01:18:08;22.00;55.10
76878;DHT22;65843;50.692;12.844;2023-04-25T01:19:09;22.10;55.00
76878;DHT22;65843;50.692;12.844;2023-04-25T01:20:13;22.10;55.10
76878;DHT22;65843;50.692;12.844;2023-04-25T01:21:14;22.00;55.10
76878;DHT22;65843;50.692;12.844;2023-04-25T01:22:16;22.10;55.10
76878;DHT22;65843;50.692;12.844;2023-04-25T01:23:18;22.10;55.10
76878;DHT22;65843;50.692;12.844;2023-04-25T01:24:19;22.10;55.20
76878;DHT22;65843;50.692;12.844;2023-04-25T01:25:20;22.10;55.20
76878;DHT22;65843;50.692;12.844;2023-04-25T01:26:21;22.10;55.20
76878;DHT22;65843;50.692;12.844;2023-04-25T01:27:23;22.10;55.10
76878;DHT22;65843;50.692;12.844;2023-04-25T01:28:24;22.10;55.20
76878;DHT22;65843;50.692;12.844;2023-04-25T01:29:25;22.10;55.20
76878;DHT22;65843;50.692;12.844;2023-04-25T01:30:26;22.10;55.20
76878;DHT22;65843;50.692;12.844;2023-04-25T01:31:27;22.10;55.20
76878;DHT22;65843;50.692;12.844;2023-04-25T01:32:29;22.10;55.20
76878;DHT22;65843;50.692;12.844;2023-04-25T01:33:32;22.10;55.20
76878;DHT22;65843;50.692;12.844;2023-04-25T01:34:33;22.10;55.20
76878;DHT22;65843;50.692;12.844;2023-04-25T01:35:34;22.10;55.30
76878;DHT22;65843;50.692;12.844;2023-04-25T01:36:35;22.10;55.20
76878;DHT22;65843;50.692;12.844;2023-04-25T01:37:36;22.10;55.20
76878;DHT22;65843;50.692;12.844;2023-04-25T01:38:37;22.10;55.20
76878;DHT22;65843;50.692;12.844;2023-04-25T01:39:38;22.10;55.20
76878;DHT22;65843;50.692;12.844;2023-04-25T01:40:40;22.10;55.20
76878;DHT22;65843;50.692;12.844;2023-04-25T01:41:41;22.10;55.20
76878;DHT22;65843;50.692;12.844;2023-04-25T01:42:42;22.10;55.20
76878;DHT22;65843;50.692;12.844;2023-04-25T01:43:43;22.10;55.20
76878;DHT22;65843;50.692;12.844;2023-04-25T01:44:45;22.20;55.20
76878;DHT22;65843;50.692;12.844;2023-04-25T01:45:46;22.10;55.20
76878;DHT22;65843;50.692;12.844;2023-04-25T01:46:47;22.10;55.30
76878;DHT22;65843;50.692;12.844;2023-04-25T01:47:48;22.20;55.20
76878;DHT22;65843;50.692;12.844;2023-04-25T01:48:50;22.10;55.30
76878;DHT22;65843;50.692;12.844;2023-04-25T01:49:51;22.10;55.30
76878;DHT22;65843;50.692;12.844;2023-04-25T01:50:52;22.10;55.30
76878;DHT22;65843;50.692;12.844;2023-04-25T01:51:53;22.20;55.40
76878;DHT22;65843;50.692;12.844;2023-04-25T01:52:54;22.20;55.40
76878;DHT22;65843;50.692;12.844;2023-04-25T01:53:55;22.20;55.40
76878;DHT22;65843;50.692;12.844;2023-04-25T01:54:57;22.20;55.40
76878;DHT22;65843;50.692;12.844;2023-04-25T01:55:58;22.20;55.40
76878;DHT22;65843;50.692;12.844;2023-04-25T01:56:59;22.20;55.40
76878;DHT22;65843;50.692;12.844;2023-04-25T01:58:02;22.20;55.40
76878;DHT22;65843;50.692;12.844;2023-04-25T01:59:03;22.20;55.50
76878;DHT22;65843;50.692;12.844;2023-04-25T02:00:04;22.20;55.50
76878;DHT22;65843;50.692;12.844;2023-04-25T02:01:07;22.20;55.50
76878;DHT22;65843;50.692;12.844;2023-04-25T02:02:08;22.20;55.50
76878;DHT22;65843;50.692;12.844;2023-04-25T02:03:09;22.20;55.50
76878;DHT22;65843;50.692;12.844;2023-04-25T02:04:10;22.20;55.50
76878;DHT22;65843;50.692;12.844;2023-04-25T02:05:11;22.20;55.50
76878;DHT22;65843;50.692;12.844;2023-04-25T02:06:12;22.20;55.50
76878;DHT22;65843;50.692;12.844;2023-04-25T02:07:13;22.20;55.50
76878;DHT22;65843;50.692;12.844;2023-04-25T02:08:14;22.20;55.50
76878;DHT22;65843;50.692;12.844;2023-04-25T02:09:14;22.20;55.50
76878;DHT22;65843;50.692;12.844;2023-04-25T02:10:15;22.20;55.50
76878;DHT22;65843;50.692;12.844;2023-04-25T02:11:16;22.20;55.60
76878;DHT22;65843;50.692;12.844;2023-04-25T02:12:17;22.20;55.50
76878;DHT22;65843;50.692;12.844;2023-04-25T02:13:18;22.20;55.60
76878;DHT22;65843;50.692;12.844;2023-04-25T02:14:19;22.20;55.60
76878;DHT22;65843;50.692;12.844;2023-04-25T02:15:20;22.20;55.60
76878;DHT22;65843;50.692;12.844;2023-04-25T02:16:21;22.20;55.60
76878;DHT22;65843;50.692;12.844;2023-04-25T02:17:22;22.20;55.60
76878;DHT22;65843;50.692;12.844;2023-04-25T02:18:23;22.20;55.60
76878;DHT22;65843;50.692;12.844;2023-04-25T02:19:23;22.20;55.60
76878;DHT22;65843;50.692;12.844;2023-04-25T02:20:25;22.20;55.60
76878;DHT22;65843;50.692;12.844;2023-04-25T02:21:26;22.20;55.60
76878;DHT22;65843;50.692;12.844;2023-04-25T02:22:27;22.20;55.60
76878;DHT22;65843;50.692;12.844;2023-04-25T02:23:30;22.20;55.70
76878;DHT22;65843;50.692;12.844;2023-04-25T02:24:31;22.20;55.70
76878;DHT22;65843;50.692;12.844;2023-04-25T02:25:34;22.20;55.70
76878;DHT22;65843;50.692;12.844;2023-04-25T02:26:35;22.20;55.70
76878;DHT22;65843;50.692;12.844;2023-04-25T02:27:36;22.20;55.70
76878;DHT22;65843;50.692;12.844;2023-04-25T02:28:36;22.20;55.70
76878;DHT22;65843;50.692;12.844;2023-04-25T02:29:37;22.20;55.70
76878;DHT22;65843;50.692;12.844;2023-04-25T02:30:38;22.20;55.70
76878;DHT22;65843;50.692;12.844;2023-04-25T02:31:39;22.20;55.70
76878;DHT22;65843;50.692;12.844;2023-04-25T02:32:40;22.20;55.80
76878;DHT22;65843;50.692;12.844;2023-04-25T02:33:42;22.20;55.80
76878;DHT22;65843;50.692;12.844;2023-04-25T02:34:43;22.20;55.80
76878;DHT22;65843;50.692;12.844;2023-04-25T02:35:44;22.20;55.80
76878;DHT22;65843;50.692;12.844;2023-04-25T02:36:45;22.20;55.70
76878;DHT22;65843;50.692;12.844;2023-04-25T02:37:46;22.20;55.80
76878;DHT22;65843;50.692;12.844;2023-04-25T02:38:47;22.20;55.70
76878;DHT22;65843;50.692;12.844;2023-04-25T02:39:48;22.20;55.70
76878;DHT22;65843;50.692;12.844;2023-04-25T02:40:48;22.20;55.70
76878;DHT22;65843;50.692;12.844;2023-04-25T02:41:49;22.20;55.80
76878;DHT22;65843;50.692;12.844;2023-04-25T02:42:50;22.20;55.70
76878;DHT22;65843;50.692;12.844;2023-04-25T02:43:52;22.20;55.80
76878;DHT22;65843;50.692;12.844;2023-04-25T02:44:53;22.20;55.80
76878;DHT22;65843;50.692;12.844;2023-04-25T02:45:54;22.20;55.80
76878;DHT22;65843;50.692;12.844;2023-04-25T02:46:54;22.20;55.90
76878;DHT22;65843;50.692;12.844;2023-04-25T02:47:55;22.20;55.80
76878;DHT22;65843;50.692;12.844;2023-04-25T02:48:56;22.20;55.90
76878;DHT22;65843;50.692;12.844;2023-04-25T02:49:57;22.20;55.90
76878;DHT22;65843;50.692;12.844;2023-04-25T02:50:58;22.20;55.90
76878;DHT22;65843;50.692;12.844;2023-04-25T02:51:59;22.20;55.90
76878;DHT22;65843;50.692;12.844;2023-04-25T02:53:00;22.20;55.90
76878;DHT22;65843;50.692;12.844;2023-04-25T02:54:01;22.20;55.90
76878;DHT22;65843;50.692;12.844;2023-04-25T02:55:02;22.20;55.90
76878;DHT22;65843;50.692;12.844;2023-04-25T02:56:03;22.20;56.00
76878;DHT22;65843;50.692;12.844;2023-04-25T02:57:04;22.20;56.00
76878;DHT22;65843;50.692;12.844;2023-04-25T02:58:05;22.20;56.00
76878;DHT22;65843;50.692;12.844;2023-04-25T02:59:06;22.20;56.00
76878;DHT22;65843;50.692;12.844;2023-04-25T03:00:07;22.20;56.00
76878;DHT22;65843;50.692;12.844;2023-04-25T03:01:08;22.20;56.00
76878;DHT22;65843;50.692;12.844;2023-04-25T03:02:09;22.20;56.00
76878;DHT22;65843;50.692;12.844;2023-04-25T03:03:10;22.20;56.10
76878;DHT22;65843;50.692;12.844;2023-04-25T03:04:11;22.20;56.00
76878;DHT22;65843;50.692;12.844;2023-04-25T03:05:12;22.20;56.10
76878;DHT22;65843;50.692;12.844;2023-04-25T03:06:13;22.20;56.10
76878;DHT22;65843;50.692;12.844;2023-04-25T03:07:14;22.20;56.00
76878;DHT22;65843;50.692;12.844;2023-04-25T03:08:15;22.20;56.00
76878;DHT22;65843;50.692;12.844;2023-04-25T03:09:16;22.20;56.00
76878;DHT22;65843;50.692;12.844;2023-04-25T03:10:17;22.20;56.00
76878;DHT22;65843;50.692;12.844;2023-04-25T03:11:18;22.20;56.00
76878;DHT22;65843;50.692;12.844;2023-04-25T03:12:20;22.20;56.10
76878;DHT22;65843;50.692;12.844;2023-04-25T03:13:21;22.20;56.00
76878;DHT22;65843;50.692;12.844;2023-04-25T03:14:22;22.20;56.00
76878;DHT22;65843;50.692;12.844;2023-04-25T03:15:23;22.20;56.00
76878;DHT22;65843;50.692;12.844;2023-04-25T03:16:24;22.30;56.00
76878;DHT22;65843;50.692;12.844;2023-04-25T03:17:25;22.20;56.00
76878;DHT22;65843;50.692;12.844;2023-04-25T03:18:26;22.20;56.00
76878;DHT22;65843;50.692;12.844;2023-04-25T03:19:27;22.30;56.00
76878;DHT22;65843;50.692;12.844;2023-04-25T03:20:28;22.20;56.00
76878;DHT22;65843;50.692;12.844;2023-04-25T03:21:29;22.20;56.10
76878;DHT22;65843;50.692;12.844;2023-04-25T03:22:32;22.20;56.10
76878;DHT22;65843;50.692;12.844;2023-04-25T03:23:33;22.20;56.00
76878;DHT22;65843;50.692;12.844;2023-04-25T03:24:34;22.30;56.00
76878;DHT22;65843;50.692;12.844;2023-04-25T03:25:35;22.30;56.10
76878;DHT22;65843;50.692;12.844;2023-04-25T03:26:36;22.30;56.10
76878;DHT22;65843;50.692;12.844;2023-04-25T03:27:37;22.20;56.00
76878;DHT22;65843;50.692;12.844;2023-04-25T03:28:38;22.20;56.10
76878;DHT22;65843;50.692;12.844;2023-04-25T03:29:40;22.20;56.10
76878;DHT22;65843;50.692;12.844;2023-04-25T03:30:41;22.20;56.10
76878;DHT22;65843;50.692;12.844;2023-04-25T03:31:42;22.20;56.00
76878;DHT22;65843;50.692;12.844;2023-04-25T03:32:43;22.20;56.10
76878;DHT22;65843;50.692;12.844;2023-04-25T03:33:44;22.20;56.00
76878;DHT22;65843;50.692;12.844;2023-04-25T03:34:45;22.20;56.10
76878;DHT22;65843;50.692;12.844;2023-04-25T03:35:46;22.20;56.00
76878;DHT22;65843;50.692;12.844;2023-04-25T03:36:47;22.20;56.00
76878;DHT22;65843;50.692;12.844;2023-04-25T03:37:48;22.20;56.10
76878;DHT22;65843;50.692;12.844;2023-04-25T03:38:49;22.20;56.10
76878;DHT22;65843;50.692;12.844;2023-04-25T03:39:50;22.20;56.00
76878;DHT22;65843;50.692;12.844;2023-04-25T03:40:51;22.20;56.00
76878;DHT22;65843;50.692;12.844;2023-04-25T03:41:52;22.20;56.10
76878;DHT22;65843;50.692;12.844;2023-04-25T03:42:53;22.30;56.10
76878;DHT22;65843;50.692;12.844;2023-04-25T03:43:54;22.20;56.10
76878;DHT22;65843;50.692;12.844;2023-04-25T03:44:55;22.20;56.10
76878;DHT22;65843;50.692;12.844;2023-04-25T03:45:56;22.20;56.10
76878;DHT22;65843;50.692;12.844;2023-04-25T03:46:57;22.20;56.20
76878;DHT22;65843;50.692;12.844;2023-04-25T03:47:57;22.20;56.10
76878;DHT22;65843;50.692;12.844;2023-04-25T03:48:58;22.20;56.20
76878;DHT22;65843;50.692;12.844;2023-04-25T03:49:59;22.20;56.10
76878;DHT22;65843;50.692;12.844;2023-04-25T03:51:02;22.20;56.20
76878;DHT22;65843;50.692;12.844;2023-04-25T03:52:03;22.20;56.20
76878;DHT22;65843;50.692;12.844;2023-04-25T03:53:04;22.20;56.20
76878;DHT22;65843;50.692;12.844;2023-04-25T03:54:05;22.20;56.20
76878;DHT22;65843;50.692;12.844;2023-04-25T03:55:06;22.20;56.20
76878;DHT22;65843;50.692;12.844;2023-04-25T03:56:07;22.20;56.20
76878;DHT22;65843;50.692;12.844;2023-04-25T03:57:08;22.20;56.20
76878;DHT22;65843;50.692;12.844;2023-04-25T03:58:09;22.20;56.20
76878;DHT22;65843;50.692;12.844;2023-04-25T03:59:10;22.20;56.20
76878;DHT22;65843;50.692;12.844;2023-04-25T04:00:11;22.30;56.20
76878;DHT22;65843;50.692;12.844;2023-04-25T04:01:12;22.20;56.20
76878;DHT22;65843;50.692;12.844;2023-04-25T04:02:13;22.20;56.20
76878;DHT22;65843;50.692;12.844;2023-04-25T04:03:14;22.20;56.20
76878;DHT22;65843;50.692;12.844;2023-04-25T04:04:14;22.30;56.30
76878;DHT22;65843;50.692;12.844;2023-04-25T04:05:15;22.20;56.30
76878;DHT22;65843;50.692;12.844;2023-04-25T04:06:16;22.20;56.20
76878;DHT22;65843;50.692;12.844;2023-04-25T04:07:17;22.20;56.20
76878;DHT22;65843;50.692;12.844;2023-04-25T04:08:18;22.30;56.20
76878;DHT22;65843;50.692;12.844;2023-04-25T04:09:19;22.30;56.20
76878;DHT22;65843;50.692;12.844;2023-04-25T04:10:21;22.30;56.20
76878;DHT22;65843;50.692;12.844;2023-04-25T04:11:22;22.30;56.20
76878;DHT22;65843;50.692;12.844;2023-04-25T04:12:23;22.30;56.10
76878;DHT22;65843;50.692;12.844;2023-04-25T04:13:25;22.30;56.10
76878;DHT22;65843;50.692;12.844;2023-04-25T04:14:26;22.30;56.10
76878;DHT22;65843;50.692;12.844;2023-04-25T04:15:27;22.30;56.10
76878;DHT22;65843;50.692;12.844;2023-04-25T04:16:28;22.30;56.00
76878;DHT22;65843;50.692;12.844;2023-04-25T04:17:33;22.20;56.00
76878;DHT22;65843;50.692;12.844;2023-04-25T04:18:40;22.20;56.00
76878;DHT22;65843;50.692;12.844;2023-04-25T04:19:41;22.20;55.90
76878;DHT22;65843;50.692;12.844;2023-04-25T04:20:42;22.20;56.00
76878;DHT22;65843;50.692;12.844;2023-04-25T04:21:43;22.20;56.00
76878;DHT22;65843;50.692;12.844;2023-04-25T04:22:44;22.20;56.00
76878;DHT22;65843;50.692;12.844;2023-04-25T04:23:44;22.20;56.00
76878;DHT22;65843;50.692;12.844;2023-04-25T04:24:47;22.20;56.00
76878;DHT22;65843;50.692;12.844;2023-04-25T04:25:48;22.20;56.00
76878;DHT22;65843;50.692;12.844;2023-04-25T04:26:48;22.20;56.00
76878;DHT22;65843;50.692;12.844;2023-04-25T04:27:50;22.20;56.00
76878;DHT22;65843;50.692;12.844;2023-04-25T04:28:55;22.20;56.10
76878;DHT22;65843;50.692;12.844;2023-04-25T04:29:56;22.10;56.10
76878;DHT22;65843;50.692;12.844;2023-04-25T04:30:58;22.10;56.10
76878;DHT22;65843;50.692;12.844;2023-04-25T04:31:59;22.10;56.10
76878;DHT22;65843;50.692;12.844;2023-04-25T04:33:01;22.10;56.10
76878;DHT22;65843;50.692;12.844;2023-04-25T04:34:02;22.10;56.10
76878;DHT22;65843;50.692;12.844;2023-04-25T04:35:04;22.10;56.10
76878;DHT22;65843;50.692;12.844;2023-04-25T04:36:05;22.10;56.10
76878;DHT22;65843;50.692;12.844;2023-04-25T04:37:08;22.10;56.10
76878;DHT22;65843;50.692;12.844;2023-04-25T04:38:10;22.10;56.10
76878;DHT22;65843;50.692;12.844;2023-04-25T04:39:12;22.10;56.20
76878;DHT22;65843;50.692;12.844;2023-04-25T04:40:14;22.10;56.10
76878;DHT22;65843;50.692;12.844;2023-04-25T04:41:16;22.10;56.10
76878;DHT22;65843;50.692;12.844;2023-04-25T04:42:17;22.10;56.10
76878;DHT22;65843;50.692;12.844;2023-04-25T04:43:18;22.10;56.10
76878;DHT22;65843;50.692;12.844;2023-04-25T04:44:19;22.10;56.10
76878;DHT22;65843;50.692;12.844;2023-04-25T04:45:20;22.10;56.00
76878;DHT22;65843;50.692;12.844;2023-04-25T04:46:21;22.10;56.10
76878;DHT22;65843;50.692;12.844;2023-04-25T04:47:22;22.10;56.10
76878;DHT22;65843;50.692;12.844;2023-04-25T04:48:24;22.10;56.20
76878;DHT22;65843;50.692;12.844;2023-04-25T04:49:25;22.10;56.20
76878;DHT22;65843;50.692;12.844;2023-04-25T04:50:27;22.10;56.10
76878;DHT22;65843;50.692;12.844;2023-04-25T04:51:27;22.10;55.80
76878;DHT22;65843;50.692;12.844;2023-04-25T04:52:28;22.10;55.60
76878;DHT22;65843;50.692;12.844;2023-04-25T04:53:29;22.10;55.30
76878;DHT22;65843;50.692;12.844;2023-04-25T04:54:30;22.10;55.20
76878;DHT22;65843;50.692;12.844;2023-04-25T04:55:31;22.00;55.10
76878;DHT22;65843;50.692;12.844;2023-04-25T04:56:32;22.00;55.00
76878;DHT22;65843;50.692;12.844;2023-04-25T04:57:34;22.00;54.80
76878;DHT22;65843;50.692;12.844;2023-04-25T04:58:35;22.00;54.70
76878;DHT22;65843;50.692;12.844;2023-04-25T04:59:37;21.90;54.60
76878;DHT22;65843;50.692;12.844;2023-04-25T05:00:38;21.90;54.50
76878;DHT22;65843;50.692;12.844;2023-04-25T05:01:38;21.90;54.40
76878;DHT22;65843;50.692;12.844;2023-04-25T05:02:39;21.90;54.30
76878;DHT22;65843;50.692;12.844;2023-04-25T05:03:40;21.90;54.20
76878;DHT22;65843;50.692;12.844;2023-04-25T05:04:41;21.80;54.20
76878;DHT22;65843;50.692;12.844;2023-04-25T05:05:42;21.70;54.10
76878;DHT22;65843;50.692;12.844;2023-04-25T05:06:43;21.70;54.10
76878;DHT22;65843;50.692;12.844;2023-04-25T05:07:45;21.70;54.30
76878;DHT22;65843;50.692;12.844;2023-04-25T05:08:46;21.70;54.30
76878;DHT22;65843;50.692;12.844;2023-04-25T05:09:47;21.70;54.40
76878;DHT22;65843;50.692;12.844;2023-04-25T05:10:48;21.70;54.40
76878;DHT22;65843;50.692;12.844;2023-04-25T05:11:49;21.70;54.50
76878;DHT22;65843;50.692;12.844;2023-04-25T05:12:49;21.70;54.40
76878;DHT22;65843;50.692;12.844;2023-04-25T05:13:51;21.70;54.40
76878;DHT22;65843;50.692;12.844;2023-04-25T05:14:52;21.70;54.30
76878;DHT22;65843;50.692;12.844;2023-04-25T05:15:53;21.70;54.40
76878;DHT22;65843;50.692;12.844;2023-04-25T05:16:54;21.70;54.30
76878;DHT22;65843;50.692;12.844;2023-04-25T05:17:55;21.70;54.10
76878;DHT22;65843;50.692;12.844;2023-04-25T05:18:56;21.70;54.10
76878;DHT22;65843;50.692;12.844;2023-04-25T05:19:57;21.70;54.10
76878;DHT22;65843;50.692;12.844;2023-04-25T05:20:58;21.70;54.10
76878;DHT22;65843;50.692;12.844;2023-04-25T05:21:59;21.70;54.00
76878;DHT22;65843;50.692;12.844;2023-04-25T05:23:00;21.60;53.90
76878;DHT22;65843;50.692;12.844;2023-04-25T05:24:01;21.70;53.90
76878;DHT22;65843;50.692;12.844;2023-04-25T05:25:02;21.60;54.00
76878;DHT22;65843;50.692;12.844;2023-04-25T05:26:04;21.60;54.00
76878;DHT22;65843;50.692;12.844;2023-04-25T05:27:05;21.60;54.10
76878;DHT22;65843;50.692;12.844;2023-04-25T05:28:07;21.60;54.10
76878;DHT22;65843;50.692;12.844;2023-04-25T05:29:07;21.60;54.00
76878;DHT22;65843;50.692;12.844;2023-04-25T05:30:08;21.60;54.10
76878;DHT22;65843;50.692;12.844;2023-04-25T05:31:10;21.60;54.10
76878;DHT22;65843;50.692;12.844;2023-04-25T05:32:11;21.60;54.10
76878;DHT22;65843;50.692;12.844;2023-04-25T05:33:12;21.70;54.10
76878;DHT22;65843;50.692;12.844;2023-04-25T05:34:13;21.60;54.10
76878;DHT22;65843;50.692;12.844;2023-04-25T05:35:14;21.70;54.10
76878;DHT22;65843;50.692;12.844;2023-04-25T05:36:15;21.70;54.00
76878;DHT22;65843;50.692;12.844;2023-04-25T05:37:15;21.70;53.90
76878;DHT22;65843;50.692;12.844;2023-04-25T05:38:16;21.70;54.00
76878;DHT22;65843;50.692;12.844;2023-04-25T05:39:17;21.70;53.90
76878;DHT22;65843;50.692;12.844;2023-04-25T05:40:18;21.70;53.80
76878;DHT22;65843;50.692;12.844;2023-04-25T05:41:19;21.60;53.80
76878;DHT22;65843;50.692;12.844;2023-04-25T05:42:20;21.60;53.80
76878;DHT22;65843;50.692;12.844;2023-04-25T05:43:24;21.60;53.80
76878;DHT22;65843;50.692;12.844;2023-04-25T05:44:25;21.60;53.90
76878;DHT22;65843;50.692;12.844;2023-04-25T05:45:27;21.70;53.90
76878;DHT22;65843;50.692;12.844;2023-04-25T05:46:28;21.70;53.90
76878;DHT22;65843;50.692;12.844;2023-04-25T05:47:28;21.70;53.90
76878;DHT22;65843;50.692;12.844;2023-04-25T05:48:29;21.70;53.90
76878;DHT22;65843;50.692;12.844;2023-04-25T05:49:30;21.70;53.80
76878;DHT22;65843;50.692;12.844;2023-04-25T05:50:31;21.70;53.70
76878;DHT22;65843;50.692;12.844;2023-04-25T05:51:32;21.70;53.70
76878;DHT22;65843;50.692;12.844;2023-04-25T05:52:33;21.70;53.60
76878;DHT22;65843;50.692;12.844;2023-04-25T05:53:34;21.70;53.50
76878;DHT22;65843;50.692;12.844;2023-04-25T05:54:35;21.70;53.50
76878;DHT22;65843;50.692;12.844;2023-04-25T05:55:36;21.70;53.30
76878;DHT22;65843;50.692;12.844;2023-04-25T05:56:37;21.70;53.20
76878;DHT22;65843;50.692;12.844;2023-04-25T05:57:38;21.70;53.20
76878;DHT22;65843;50.692;12.844;2023-04-25T05:58:41;21.70;53.10
76878;DHT22;65843;50.692;12.844;2023-04-25T05:59:42;21.70;53.00
76878;DHT22;65843;50.692;12.844;2023-04-25T06:00:43;21.70;52.80
76878;DHT22;65843;50.692;12.844;2023-04-25T06:01:45;21.70;52.80
76878;DHT22;65843;50.692;12.844;2023-04-25T06:02:47;21.70;52.70
76878;DHT22;65843;50.692;12.844;2023-04-25T06:03:48;21.70;52.60
76878;DHT22;65843;50.692;12.844;2023-04-25T06:04:49;21.70;52.70
76878;DHT22;65843;50.692;12.844;2023-04-25T06:05:50;21.60;52.50
76878;DHT22;65843;50.692;12.844;2023-04-25T06:06:51;21.60;52.50
76878;DHT22;65843;50.692;12.844;2023-04-25T06:07:52;21.50;52.50
76878;DHT22;65843;50.692;12.844;2023-04-25T06:08:53;21.50;52.40
76878;DHT22;65843;50.692;12.844;2023-04-25T06:09:55;21.50;52.30
76878;DHT22;65843;50.692;12.844;2023-04-25T06:10:56;21.50;52.20
76878;DHT22;65843;50.692;12.844;2023-04-25T06:11:57;21.50;52.20
76878;DHT22;65843;50.692;12.844;2023-04-25T06:12:58;21.50;52.10
76878;DHT22;65843;50.692;12.844;2023-04-25T06:13:58;21.50;52.00
76878;DHT22;65843;50.692;12.844;2023-04-25T06:15:00;21.50;52.00
76878;DHT22;65843;50.692;12.844;2023-04-25T06:16:01;21.40;52.00
76878;DHT22;65843;50.692;12.844;2023-04-25T06:17:02;21.40;51.90
76878;DHT22;65843;50.692;12.844;2023-04-25T06:18:07;21.40;51.90
76878;DHT22;65843;50.692;12.844;2023-04-25T06:19:08;21.40;51.80
76878;DHT22;65843;50.692;12.844;2023-04-25T06:20:09;21.40;51.70